createdAt,value
2022-09-21T00:01:08.241Z,5.67
2022-09-21T00:03:35.132Z,7.13
2022-09-21T00:06:05.412Z,6.43
2022-09-21T00:08:32.010Z,6.80
2022-09-21T00:10:59.162Z,6.37
2022-09-21T00:13:27.436Z,6.67
2022-09-21T00:15:56.966Z,7.13
2022-09-21T00:18:23.687Z,6.20
2022-09-21T00:20:50.195Z,7.17
2022-09-21T00:23:16.621Z,5.83
2022-09-21T00:25:43.064Z,6.53
2022-09-21T00:28:09.501Z,7.53
2022-09-21T00:30:35.966Z,6.93
2022-09-21T00:33:02.598Z,6.10
2022-09-21T00:35:29.040Z,5.93
2022-09-21T00:37:55.534Z,6.37
2022-09-21T00:40:21.999Z,5.03
2022-09-21T00:42:48.532Z,5.80
2022-09-21T00:45:21.269Z,5.27
2022-09-21T00:47:48.715Z,6.10
2022-09-21T00:50:17.687Z,6.23
2022-09-21T00:52:45.107Z,5.83
2022-09-21T00:55:14.732Z,7.30
2022-09-21T00:57:41.320Z,5.90
2022-09-21T01:00:11.203Z,8.37
2022-09-21T01:02:37.911Z,7.37
2022-09-21T01:05:07.794Z,7.20
2022-09-21T01:07:35.058Z,7.80
2022-09-21T01:10:03.514Z,6.60
2022-09-21T01:12:36.797Z,6.87
2022-09-21T01:15:18.670Z,6.57
2022-09-21T01:17:48.623Z,6.57
2022-09-21T01:20:15.060Z,6.37
2022-09-21T01:22:56.776Z,5.70
2022-09-21T01:25:43.527Z,5.53
2022-09-21T01:28:30.361Z,5.90
2022-09-21T01:30:58.075Z,5.20
2022-09-21T01:33:26.454Z,5.20
2022-09-21T01:35:57.360Z,5.50
2022-09-21T01:38:25.262Z,5.47
2022-09-21T01:40:53.080Z,6.00
2022-09-21T01:43:25.441Z,5.60
2022-09-21T01:45:52.566Z,5.30
2022-09-21T01:48:19.131Z,6.03
2022-09-21T01:50:46.954Z,4.80
2022-09-21T01:53:16.402Z,6.03
2022-09-21T01:55:43.923Z,5.63
2022-09-21T01:58:15.291Z,6.27
2022-09-21T02:00:41.771Z,5.53
2022-09-21T02:03:08.857Z,5.93
2022-09-21T02:05:35.278Z,5.53
2022-09-21T02:08:01.816Z,5.97
2022-09-21T02:10:43.044Z,5.70
2022-09-21T02:13:09.507Z,6.37
2022-09-21T02:15:49.775Z,6.67
2022-09-21T02:18:40.896Z,7.17
2022-09-21T02:21:10.914Z,6.93
2022-09-21T02:23:50.092Z,6.97
2022-09-21T02:26:36.815Z,7.67
2022-09-21T02:29:10.192Z,7.63
2022-09-21T02:31:39.005Z,8.13
2022-09-21T02:34:10.546Z,7.90
2022-09-21T02:36:36.986Z,8.33
2022-09-21T02:39:05.264Z,8.60
2022-09-21T02:41:40.952Z,8.17
2022-09-21T02:44:09.889Z,7.87
2022-09-21T02:46:59.323Z,7.40
2022-09-21T02:49:31.555Z,6.90
2022-09-21T02:51:58.693Z,7.67
2022-09-21T02:54:27.382Z,8.47
2022-09-21T02:56:54.118Z,7.73
2022-09-21T02:59:22.659Z,8.13
2022-09-21T03:01:49.402Z,9.13
2022-09-21T03:04:16.461Z,10.03
2022-09-21T03:06:43.015Z,8.87
2022-09-21T03:09:09.576Z,8.60
2022-09-21T03:11:39.258Z,9.63
2022-09-21T03:14:08.504Z,10.43
2022-09-21T03:16:35.514Z,10.63
2022-09-21T03:19:01.963Z,11.23
2022-09-21T03:21:29.315Z,11.70
2022-09-21T03:23:55.769Z,12.00
2022-09-21T03:26:22.431Z,12.40
2022-09-21T03:28:49.699Z,12.23
2022-09-21T03:31:16.153Z,12.10
2022-09-21T03:33:42.643Z,12.80
2022-09-21T03:36:09.206Z,13.43
2022-09-21T03:38:36.514Z,12.90
2022-09-21T03:41:03.003Z,13.13
2022-09-21T03:43:29.417Z,12.57
2022-09-21T03:45:55.954Z,13.07
2022-09-21T03:48:22.578Z,12.40
2022-09-21T03:50:49.112Z,12.97
2022-09-21T03:53:15.598Z,12.20
2022-09-21T03:55:42.250Z,11.47
2022-09-21T03:58:09.129Z,12.07
2022-09-21T04:00:35.902Z,12.07
2022-09-21T04:03:06.044Z,13.70
2022-09-21T04:05:32.620Z,12.90
2022-09-21T04:07:59.116Z,13.03
2022-09-21T04:10:29.391Z,12.13
2022-09-21T04:13:02.416Z,12.17
2022-09-21T04:15:29.694Z,11.07
2022-09-21T04:17:56.506Z,12.33
2022-09-21T04:20:23.113Z,11.00
2022-09-21T04:22:49.675Z,10.70
2022-09-21T04:25:16.172Z,10.60
2022-09-21T04:27:42.753Z,11.17
2022-09-21T04:30:10.482Z,11.67
2022-09-21T04:32:37.180Z,11.50
2022-09-21T04:35:03.930Z,10.63
2022-09-21T04:37:30.465Z,10.17
2022-09-21T04:39:56.950Z,9.47
2022-09-21T04:42:23.564Z,10.07
2022-09-21T04:44:50.248Z,15.97
2022-09-21T04:47:16.732Z,12.67
2022-09-21T04:49:43.286Z,11.13
2022-09-21T04:52:09.813Z,10.07
2022-09-21T04:54:36.359Z,10.83
2022-09-21T04:57:03.050Z,10.20
2022-09-21T04:59:29.592Z,8.63
2022-09-21T05:01:56.207Z,8.80
2022-09-21T05:04:22.635Z,8.13
2022-09-21T05:06:49.097Z,9.43
2022-09-21T05:09:34.242Z,9.73
2022-09-21T05:12:00.881Z,10.60
2022-09-21T05:14:27.349Z,11.83
2022-09-21T05:16:53.823Z,10.70
2022-09-21T05:19:20.346Z,10.90
2022-09-21T05:21:46.820Z,10.83
2022-09-21T05:24:13.357Z,10.83
2022-09-21T05:26:39.845Z,10.87
2022-09-21T05:29:06.639Z,9.60
2022-09-21T05:31:38.471Z,9.00
2022-09-21T05:34:07.978Z,12.07
2022-09-21T05:36:42.615Z,15.13
2022-09-21T05:39:09.263Z,11.20
2022-09-21T05:41:35.884Z,10.23
2022-09-21T05:44:02.618Z,9.83
2022-09-21T05:46:32.225Z,8.93
2022-09-21T05:49:28.318Z,9.27
2022-09-21T05:51:57.938Z,11.07
2022-09-21T05:54:43.147Z,10.63
2022-09-21T05:57:32.994Z,10.23
2022-09-21T06:00:02.507Z,9.80
2022-09-21T06:02:41.867Z,10.33
2022-09-21T06:05:12.250Z,10.30
2022-09-21T06:07:38.719Z,10.10
2022-09-21T06:10:05.390Z,12.73
2022-09-21T06:12:32.158Z,13.60
2022-09-21T06:14:58.643Z,11.93
2022-09-21T06:17:27.540Z,14.97
2022-09-21T06:19:54.138Z,13.30
2022-09-21T06:22:20.629Z,13.93
2022-09-21T06:24:47.134Z,11.80
2022-09-21T06:27:13.611Z,11.70
2022-09-21T06:29:40.178Z,12.17
2022-09-21T06:32:06.718Z,12.37
2022-09-21T06:34:33.187Z,12.50
2022-09-21T06:36:59.725Z,10.83
2022-09-21T06:39:26.218Z,11.63
2022-09-21T06:41:52.727Z,10.83
2022-09-21T06:44:19.184Z,11.20
2022-09-21T06:46:45.768Z,9.87
2022-09-21T06:49:12.215Z,10.13
2022-09-21T06:51:38.740Z,9.70
2022-09-21T06:54:05.926Z,10.20
2022-09-21T06:56:33.302Z,10.20
2022-09-21T06:58:59.834Z,10.10
2022-09-21T07:01:26.380Z,10.80
2022-09-21T07:03:52.957Z,9.13
2022-09-21T07:06:20.518Z,10.20
2022-09-21T07:11:33.925Z,8.20
2022-09-21T07:14:00.517Z,8.93
2022-09-21T07:16:28.201Z,9.40
2022-09-21T07:18:54.733Z,8.97
2022-09-21T07:21:21.429Z,9.07
2022-09-21T07:23:47.893Z,8.67
2022-09-21T07:26:14.365Z,8.80
2022-09-21T07:28:41.018Z,8.97
2022-09-21T07:31:08.183Z,9.47
2022-09-21T07:33:36.164Z,9.33
2022-09-21T07:36:06.670Z,9.50
2022-09-21T07:38:35.173Z,6.77
2022-09-21T07:41:03.210Z,8.13
2022-09-21T07:43:29.668Z,8.60
2022-09-21T07:45:56.289Z,7.67
2022-09-21T07:48:22.982Z,7.93
2022-09-21T07:50:49.636Z,7.70
2022-09-21T07:53:19.116Z,7.60
2022-09-21T07:55:45.571Z,8.50
2022-09-21T07:58:30.780Z,8.13
2022-09-21T08:00:57.401Z,7.03
2022-09-21T08:03:23.908Z,7.50
2022-09-21T08:05:51.227Z,7.83
2022-09-21T08:08:17.798Z,8.63
2022-09-21T08:10:44.316Z,8.40
2022-09-21T08:13:10.796Z,10.03
2022-09-21T08:15:49.287Z,10.03
2022-09-21T08:18:16.713Z,9.23
2022-09-21T08:20:44.094Z,10.20
2022-09-21T08:23:13.115Z,8.50
2022-09-21T08:25:39.569Z,9.47
2022-09-21T08:28:09.611Z,9.57
2022-09-21T08:30:36.340Z,8.30
2022-09-21T08:33:03.630Z,7.57
2022-09-21T08:35:30.067Z,8.20
2022-09-21T08:37:56.561Z,9.17
2022-09-21T08:40:23.583Z,9.53
2022-09-21T08:42:50.973Z,9.13
2022-09-21T08:45:18.227Z,9.50
2022-09-21T08:47:45.466Z,8.73
2022-09-21T08:50:32.297Z,8.13
2022-09-21T08:53:03.641Z,8.13
2022-09-21T08:55:30.274Z,6.77
2022-09-21T08:57:56.717Z,7.93
2022-09-21T09:00:23.564Z,7.60
2022-09-21T09:02:56.592Z,7.23
2022-09-21T09:05:41.854Z,6.60
2022-09-21T09:08:08.332Z,6.73
2022-09-21T09:10:48.705Z,6.47
2022-09-21T09:13:33.942Z,6.40
2022-09-21T09:16:00.429Z,6.67
2022-09-21T09:18:32.944Z,5.57
2022-09-21T09:21:11.046Z,6.67
2022-09-21T09:23:38.359Z,5.97
2022-09-21T09:26:06.284Z,5.43
2022-09-21T09:28:35.960Z,6.43
2022-09-21T09:31:07.133Z,6.50
2022-09-21T09:33:42.103Z,5.83
2022-09-21T09:36:09.365Z,4.93
2022-09-21T09:38:40.054Z,4.47
2022-09-21T09:41:09.532Z,4.73
2022-09-21T09:43:48.729Z,4.17
2022-09-21T09:46:29.597Z,5.00
2022-09-21T09:49:05.348Z,4.20
2022-09-21T09:51:33.535Z,4.63
2022-09-21T09:54:01.041Z,4.33
2022-09-21T09:56:27.520Z,4.43
2022-09-21T09:58:55.061Z,4.97
2022-09-21T10:01:42.637Z,4.70
2022-09-21T10:04:13.390Z,3.80
2022-09-21T10:06:45.841Z,3.37
2022-09-21T10:09:19.487Z,2.83
2022-09-21T10:11:45.956Z,3.70
2022-09-21T10:14:14.912Z,2.80
2022-09-21T10:16:41.897Z,2.90
2022-09-21T10:19:14.286Z,2.90
2022-09-21T10:21:41.279Z,2.13
2022-09-21T10:24:08.275Z,1.90
2022-09-21T10:26:41.943Z,1.80
2022-09-21T10:29:19.019Z,4.63
2022-09-21T10:32:16.421Z,2.13
2022-09-21T10:35:02.221Z,2.50
2022-09-21T10:37:29.629Z,3.30
2022-09-21T10:39:57.345Z,3.07
2022-09-21T10:42:23.793Z,2.93
2022-09-21T10:44:50.902Z,1.70
2022-09-21T10:47:18.567Z,1.83
2022-09-21T10:49:46.698Z,2.10
2022-09-21T10:52:13.181Z,2.40
2022-09-21T10:54:39.701Z,1.60
2022-09-21T10:57:09.687Z,2.27
2022-09-21T10:59:37.194Z,2.33
2022-09-21T11:02:24.024Z,2.27
2022-09-21T11:04:51.251Z,2.07
2022-09-21T11:07:44.089Z,2.87
2022-09-21T11:10:13.509Z,3.60
2022-09-21T11:12:40.435Z,2.80
2022-09-21T11:15:10.119Z,2.43
2022-09-21T11:17:41.649Z,2.63
2022-09-21T11:20:22.844Z,2.47
2022-09-21T11:22:57.384Z,2.03
2022-09-21T11:25:32.626Z,2.40
2022-09-21T11:28:09.094Z,2.90
2022-09-21T11:30:42.893Z,3.57
2022-09-21T11:33:09.863Z,2.90
2022-09-21T11:35:51.569Z,3.58
2022-09-21T11:38:33.705Z,2.50
2022-09-21T11:41:20.019Z,3.50
2022-09-21T11:43:52.508Z,2.78
2022-09-21T11:46:22.888Z,2.33
2022-09-21T11:48:49.520Z,2.37
2022-09-21T11:51:29.535Z,2.40
2022-09-21T11:53:57.847Z,2.60
2022-09-21T11:56:47.589Z,2.88
2022-09-21T11:59:17.073Z,3.03
2022-09-21T12:01:46.644Z,2.83
2022-09-21T12:04:20.111Z,2.25
2022-09-21T12:06:54.099Z,2.75
2022-09-21T12:09:23.625Z,2.50
2022-09-21T12:11:51.869Z,3.00
2022-09-21T12:14:22.653Z,2.50
2022-09-21T12:16:49.213Z,2.45
2022-09-21T12:19:18.695Z,2.03
2022-09-21T12:21:49.210Z,2.10
2022-09-21T12:24:22.950Z,2.47
2022-09-21T12:26:50.571Z,2.20
2022-09-21T12:29:19.093Z,1.70
2022-09-21T12:32:15.433Z,1.75
2022-09-21T12:34:42.636Z,2.30
2022-09-21T12:37:15.207Z,1.92
2022-09-21T12:39:43.370Z,2.05
2022-09-21T12:42:33.274Z,2.08
2022-09-21T12:45:01.743Z,2.40
2022-09-21T12:47:37.753Z,2.40
2022-09-21T12:50:06.606Z,1.80
2022-09-21T12:52:33.345Z,1.77
2022-09-21T12:55:02.513Z,2.13
2022-09-21T12:58:10.875Z,2.03
2022-09-21T13:00:39.600Z,3.58
2022-09-21T13:03:17.303Z,2.42
2022-09-21T13:05:49.733Z,1.88
2022-09-21T13:08:21.527Z,2.58
2022-09-21T13:11:00.763Z,1.67
2022-09-21T13:13:29.066Z,1.45
2022-09-21T13:15:55.602Z,3.97
2022-09-21T13:18:35.145Z,1.88
2022-09-21T13:21:14.182Z,2.80
2022-09-21T13:23:42.425Z,1.73
2022-09-21T13:26:10.121Z,1.73
2022-09-21T13:28:55.007Z,1.10
2022-09-21T13:31:41.403Z,1.60
2022-09-21T13:34:17.299Z,1.25
2022-09-21T13:36:43.897Z,1.30
2022-09-21T13:39:17.665Z,1.80
2022-09-21T13:42:02.452Z,1.50
2022-09-21T13:44:41.048Z,1.60
2022-09-21T13:47:08.509Z,1.35
2022-09-21T13:49:45.315Z,1.30
2022-09-21T13:52:15.918Z,1.98
2022-09-21T13:54:45.463Z,1.48
2022-09-21T13:57:16.498Z,1.40
2022-09-21T13:59:43.756Z,2.40
2022-09-21T14:02:23.107Z,2.42
2022-09-21T14:04:50.204Z,2.20
2022-09-21T14:07:16.646Z,1.92
2022-09-21T14:09:52.531Z,1.35
2022-09-21T14:12:19.875Z,1.42
2022-09-21T14:15:06.307Z,1.20
2022-09-21T14:17:36.812Z,0.88
2022-09-21T14:20:04.125Z,1.00
2022-09-21T14:22:34.295Z,1.33
2022-09-21T14:25:24.479Z,1.73
2022-09-21T14:27:53.533Z,1.83
2022-09-21T14:30:21.195Z,2.08
2022-09-21T14:32:59.815Z,1.40
2022-09-21T14:35:38.635Z,2.47
2022-09-21T14:38:08.083Z,2.75
2022-09-21T14:40:44.397Z,2.28
2022-09-21T14:43:12.509Z,2.60
2022-09-21T14:45:45.151Z,2.70
2022-09-21T14:48:30.989Z,3.20
2022-09-21T14:51:00.502Z,3.58
2022-09-21T14:53:39.368Z,2.92
2022-09-21T14:56:06.323Z,3.97
2022-09-21T14:58:32.753Z,2.97
2022-09-21T15:01:15.546Z,2.10
2022-09-21T15:03:49.078Z,1.40
2022-09-21T15:06:38.086Z,0.82
2022-09-21T15:09:42.356Z,0.77
2022-09-21T15:12:11.668Z,1.00
2022-09-21T15:14:40.874Z,0.90
2022-09-21T15:17:24.334Z,1.10
2022-09-21T15:19:50.905Z,0.90
2022-09-21T15:22:21.095Z,1.17
2022-09-21T15:24:51.712Z,1.13
2022-09-21T15:27:18.522Z,1.17
2022-09-21T15:29:47.677Z,1.20
2022-09-21T15:32:20.325Z,0.90
2022-09-21T15:34:46.746Z,1.10
2022-09-21T15:37:17.483Z,1.20
2022-09-21T15:39:44.074Z,1.00
2022-09-21T15:42:10.687Z,1.50
2022-09-21T15:44:37.653Z,1.75
2022-09-21T15:47:04.666Z,1.95
2022-09-21T15:49:31.258Z,2.67
2022-09-21T15:52:12.998Z,2.30
2022-09-21T15:54:44.279Z,2.22
2022-09-21T15:57:25.473Z,2.45
2022-09-21T15:59:52.002Z,2.67
2022-09-21T16:02:20.479Z,2.58
2022-09-21T16:04:50.181Z,3.33
2022-09-21T16:07:29.762Z,3.35
2022-09-21T16:09:56.454Z,3.10
2022-09-21T16:12:26.087Z,3.35
2022-09-21T16:15:03.883Z,3.22
2022-09-21T16:17:35.464Z,3.40
2022-09-21T16:20:10.759Z,3.50
2022-09-21T16:22:37.926Z,3.45
2022-09-21T16:25:13.779Z,3.90
2022-09-21T16:27:40.201Z,4.00
2022-09-21T16:30:06.939Z,4.03
2022-09-21T16:32:33.881Z,3.80
2022-09-21T16:35:18.637Z,4.32
2022-09-21T16:37:45.118Z,4.43
2022-09-21T16:40:11.895Z,5.15
2022-09-21T16:42:38.542Z,5.43
2022-09-21T16:45:11.143Z,5.32
2022-09-21T16:47:37.777Z,5.43
2022-09-21T16:50:06.769Z,7.50
2022-09-21T16:52:33.275Z,7.63
2022-09-21T16:55:02.597Z,7.28
2022-09-21T16:57:29.157Z,7.68
2022-09-21T16:59:55.675Z,7.20
2022-09-21T17:02:22.588Z,6.90
2022-09-21T17:04:49.220Z,6.85
2022-09-21T17:07:15.801Z,8.48
2022-09-21T17:09:47.995Z,8.95
2022-09-21T17:12:15.659Z,8.13
2022-09-21T17:14:46.764Z,7.70
2022-09-21T17:17:20.411Z,7.03
2022-09-21T17:19:47.178Z,6.53
2022-09-21T17:22:19.712Z,6.68
2022-09-21T17:24:50.826Z,7.30
2022-09-21T17:27:18.971Z,7.05
2022-09-21T17:29:49.717Z,6.97
2022-09-21T17:32:18.582Z,7.18
2022-09-21T17:34:46.340Z,7.30
2022-09-21T17:37:13.125Z,7.30
2022-09-21T17:39:39.610Z,7.38
2022-09-21T17:42:19.134Z,7.17
2022-09-21T17:44:59.675Z,7.60
2022-09-21T17:47:29.485Z,7.75
2022-09-21T17:50:06.544Z,7.63
2022-09-21T17:52:51.742Z,7.72
2022-09-21T17:55:18.504Z,8.23
2022-09-21T17:57:55.930Z,8.43
2022-09-21T18:00:23.744Z,8.40
2022-09-21T18:02:50.456Z,10.65
2022-09-21T18:05:26.927Z,10.32
2022-09-21T18:07:53.590Z,11.73
2022-09-21T18:10:21.332Z,12.00
2022-09-21T18:12:51.377Z,12.38
2022-09-21T18:15:23.067Z,14.27
2022-09-21T18:17:55.930Z,17.55
2022-09-21T18:20:41.829Z,16.70
2022-09-21T18:23:27.095Z,19.07
2022-09-21T18:25:55.109Z,16.87
2022-09-21T18:28:23.826Z,15.77
2022-09-21T18:30:59.565Z,15.83
2022-09-21T18:33:29.215Z,14.33
2022-09-21T18:36:00.747Z,14.60
2022-09-21T18:38:28.182Z,13.80
2022-09-21T18:41:13.775Z,15.30
2022-09-21T18:43:40.267Z,13.47
2022-09-21T18:46:10.462Z,13.83
2022-09-21T18:48:48.543Z,13.67
2022-09-21T18:51:31.446Z,13.20
2022-09-21T18:53:58.372Z,11.73
2022-09-21T18:56:25.945Z,11.80
2022-09-21T18:58:52.682Z,12.73
2022-09-21T19:01:22.143Z,13.17
2022-09-21T19:03:49.928Z,27.47
2022-09-21T19:06:26.456Z,44.03
2022-09-21T19:09:08.398Z,33.03
2022-09-21T19:11:38.351Z,23.17
2022-09-21T19:14:07.300Z,16.37
2022-09-21T19:16:35.173Z,15.13
2022-09-21T19:19:09.142Z,14.63
2022-09-21T19:21:45.905Z,15.50
2022-09-21T19:24:18.722Z,14.67
2022-09-21T19:26:56.073Z,15.77
2022-09-21T19:29:25.724Z,16.47
2022-09-21T19:31:52.266Z,17.63
2022-09-21T19:34:19.175Z,19.33
2022-09-21T19:36:47.361Z,16.37
2022-09-21T19:39:14.136Z,17.70
2022-09-21T19:41:43.114Z,19.33
2022-09-21T19:44:10.070Z,20.27
2022-09-21T19:46:39.573Z,19.37
2022-09-21T19:49:14.354Z,21.27
2022-09-21T19:51:43.006Z,21.07
2022-09-21T19:54:29.191Z,22.85
2022-09-21T19:57:14.517Z,22.05
2022-09-21T19:59:44.010Z,22.97
2022-09-21T20:02:13.653Z,27.47
2022-09-21T20:04:47.240Z,24.07
2022-09-21T20:07:18.983Z,20.90
2022-09-21T20:09:46.079Z,20.40
2022-09-21T20:12:22.062Z,18.93
2022-09-21T20:14:50.718Z,19.90
2022-09-21T20:17:22.200Z,20.37
2022-09-21T20:19:51.745Z,17.47
2022-09-21T20:22:19.727Z,19.00
2022-09-21T20:24:49.577Z,18.30
2022-09-21T20:27:26.052Z,20.10
2022-09-21T20:29:52.513Z,22.67
2022-09-21T20:32:19.067Z,22.73
2022-09-21T20:34:45.580Z,24.60
2022-09-21T20:37:13.130Z,23.43
2022-09-21T20:39:39.860Z,22.73
2022-09-21T20:42:06.392Z,21.77
2022-09-21T20:44:32.954Z,22.53
2022-09-21T20:46:59.718Z,20.90
2022-09-21T20:49:46.633Z,21.73
2022-09-21T20:52:16.080Z,23.03
2022-09-21T20:54:48.310Z,23.95
2022-09-21T20:57:16.107Z,24.50
2022-09-21T20:59:42.569Z,26.40
2022-09-21T21:02:12.730Z,28.13
2022-09-21T21:04:39.402Z,27.37
2022-09-21T21:07:06.245Z,28.27
2022-09-21T21:09:32.918Z,27.30
2022-09-21T21:11:59.459Z,25.60
2022-09-21T21:14:30.056Z,25.98
2022-09-21T21:16:56.603Z,24.47
2022-09-21T21:19:23.426Z,24.73
2022-09-21T21:21:50.009Z,24.17
2022-09-21T21:24:48.999Z,23.30
2022-09-21T21:27:16.695Z,23.53
2022-09-21T21:29:44.136Z,25.60
2022-09-21T21:32:10.724Z,24.97
2022-09-21T21:34:37.516Z,26.00
2022-09-21T21:37:04.411Z,26.90
2022-09-21T21:39:30.958Z,26.10
2022-09-21T21:41:57.535Z,26.60
2022-09-21T21:44:23.999Z,25.70
2022-09-21T21:46:51.670Z,27.57
2022-09-21T21:49:18.229Z,27.87
2022-09-21T21:51:44.822Z,27.58
2022-09-21T21:54:11.565Z,31.10
2022-09-21T21:56:38.032Z,29.63
2022-09-21T21:59:05.093Z,28.03
2022-09-21T22:01:31.640Z,26.87
2022-09-21T22:04:00.180Z,25.50
2022-09-21T22:06:26.967Z,26.30
2022-09-21T22:08:53.504Z,23.00
2022-09-21T22:11:20.117Z,20.93
2022-09-21T22:13:46.623Z,21.13
2022-09-21T22:16:14.542Z,21.20
2022-09-21T22:18:41.022Z,19.07
2022-09-21T22:21:11.735Z,19.20
2022-09-21T22:23:38.273Z,19.03
2022-09-21T22:26:15.546Z,17.60
2022-09-21T22:28:43.010Z,16.47
2022-09-21T22:31:11.499Z,16.20
2022-09-21T22:33:38.095Z,16.23
2022-09-21T22:36:08.518Z,16.60
2022-09-21T22:38:41.934Z,15.83
2022-09-21T22:41:10.172Z,15.00
2022-09-21T22:43:36.833Z,16.30
2022-09-21T22:46:04.282Z,14.90
2022-09-21T22:48:30.800Z,14.70
2022-09-21T22:50:57.337Z,14.03
2022-09-21T22:53:24.092Z,15.33
2022-09-21T22:56:05.156Z,16.00
2022-09-21T22:58:35.190Z,16.73
2022-09-21T23:01:14.821Z,16.67
2022-09-21T23:03:41.814Z,17.97
2022-09-21T23:06:09.459Z,18.80
2022-09-21T23:08:36.111Z,16.83
2022-09-21T23:11:13.371Z,17.73
2022-09-21T23:13:39.907Z,16.97
2022-09-21T23:16:07.180Z,17.60
2022-09-21T23:18:33.893Z,19.37
2022-09-21T23:21:00.998Z,18.10
2022-09-21T23:23:28.284Z,16.67
2022-09-21T23:26:14.240Z,15.97
2022-09-21T23:28:41.949Z,16.37
2022-09-21T23:31:09.266Z,16.00
2022-09-21T23:33:36.445Z,16.73
2022-09-21T23:36:03.241Z,16.13
2022-09-21T23:38:29.827Z,15.83
2022-09-21T23:41:02.882Z,14.90
2022-09-21T23:43:29.350Z,15.80
2022-09-21T23:45:55.881Z,15.83
2022-09-21T23:48:22.385Z,15.10
2022-09-21T23:50:48.823Z,18.17
2022-09-21T23:53:15.334Z,17.33
2022-09-21T23:55:41.832Z,18.67
2022-09-21T23:58:08.302Z,16.67
